sensor_id;sensor_type;location;lat;lon;timestamp;pressure;altitude;pressure_sealevel;temperature;humidity
17950;BME280;9100;48.700;9.316;2023-02-18T00:00:22;98680.7;;;12.05;100
17950;BME280;9100;48.700;9.316;2023-02-18T00:01:22;98675.5;;;12.05;100
17950;BME280;9100;48.700;9.316;2023-02-18T00:01:46;98674.7;;;12.04;100
17950;BME280;9100;48.700;9.316;2023-02-18T00:02:22;98682.3;;;12.06;100
17950;BME280;9100;48.700;9.316;2023-02-18T00:03:22;98676.3;;;12.05;100
17950;BME280;9100;48.700;9.316;2023-02-18T00:04:21;98674.59999999999;;;12.06;100
17950;BME280;9100;48.700;9.316;2023-02-18T00:05:21;98667;;;12.04;100
17950;BME280;9100;48.700;9.316;2023-02-18T00:06:22;98667.9;;;12.05;100
17950;BME280;9100;48.700;9.316;2023-02-18T00:06:46;98670.6;;;12.03;100
17950;BME280;9100;48.700;9.316;2023-02-18T00:07:22;98673;;;12.05;100
17950;BME280;9100;48.700;9.316;2023-02-18T00:08:22;98665.3;;;12.05;100
17950;BME280;9100;48.700;9.316;2023-02-18T00:09:21;98673.90000000001;;;12.04;100
17950;BME280;9100;48.700;9.316;2023-02-18T00:10:21;98670.6;;;12.03;100
17950;BME280;9100;48.700;9.316;2023-02-18T00:11:22;98668.8;;;12.04;100
17950;BME280;9100;48.700;9.316;2023-02-18T00:11:46;98662.09999999999;;;12.03;100
17950;BME280;9100;48.700;9.316;2023-02-18T00:12:21;98668;;;12.03;100
17950;BME280;9100;48.700;9.316;2023-02-18T00:13:21;98664.5;;;12.04;100
17950;BME280;9100;48.700;9.316;2023-02-18T00:14:22;98659.5;;;12.03;100
17950;BME280;9100;48.700;9.316;2023-02-18T00:15:21;98657.8;;;12.03;100
17950;BME280;9100;48.700;9.316;2023-02-18T00:16:21;98652;;;12.01;100
17950;BME280;9100;48.700;9.316;2023-02-18T00:16:46;98651.8;;;12.03;100
17950;BME280;9100;48.700;9.316;2023-02-18T00:17:21;98661.3;;;12.02;100
17950;BME280;9100;48.700;9.316;2023-02-18T00:18:21;98663.8;;;12.02;100
17950;BME280;9100;48.700;9.316;2023-02-18T00:19:21;98655.4;;;12.02;100
17950;BME280;9100;48.700;9.316;2023-02-18T00:20:21;98659.5;;;12.03;100
17950;BME280;9100;48.700;9.316;2023-02-18T00:21:21;98661.3;;;12.02;100
17950;BME280;9100;48.700;9.316;2023-02-18T00:21:47;98666.4;;;12.02;100
17950;BME280;9100;48.700;9.316;2023-02-18T00:22:21;98667.2;;;12.03;100
17950;BME280;9100;48.700;9.316;2023-02-18T00:23:21;98663.8;;;12.02;100
17950;BME280;9100;48.700;9.316;2023-02-18T00:24:21;98663.09999999999;;;12.02;100
17950;BME280;9100;48.700;9.316;2023-02-18T00:25:21;98663.7;;;12.04;100
17950;BME280;9100;48.700;9.316;2023-02-18T00:26:21;98654.4;;;12.03;100
17950;BME280;9100;48.700;9.316;2023-02-18T00:26:49;98658.6;;;12.04;100
17950;BME280;9100;48.700;9.316;2023-02-18T00:27:21;98657.6;;;12.05;100
17950;BME280;9100;48.700;9.316;2023-02-18T00:28:21;98656;;;12.04;100
17950;BME280;9100;48.700;9.316;2023-02-18T00:29:22;98656;;;12.04;100
17950;BME280;9100;48.700;9.316;2023-02-18T00:30:21;98654.4;;;12.03;100
17950;BME280;9100;48.700;9.316;2023-02-18T00:31:21;98655.4;;;12.02;100
17950;BME280;9100;48.700;9.316;2023-02-18T00:31:47;98652.8;;;12.02;100
17950;BME280;9100;48.700;9.316;2023-02-18T00:32:21;98653.59999999999;;;12.02;100
17950;BME280;9100;48.700;9.316;2023-02-18T00:33:21;98662.09999999999;;;12.03;100
17950;BME280;9100;48.700;9.316;2023-02-18T00:34:21;98655.4;;;12.02;100
17950;BME280;9100;48.700;9.316;2023-02-18T00:35:21;98653.59999999999;;;12.02;100
17950;BME280;9100;48.700;9.316;2023-02-18T00:36:22;98665.59999999999;;;12.02;100
17950;BME280;9100;48.700;9.316;2023-02-18T00:36:46;98665.8;;;12;100
17950;BME280;9100;48.700;9.316;2023-02-18T00:37:21;98660.5;;;12.02;100
17950;BME280;9100;48.700;9.316;2023-02-18T00:38:21;98666.6;;;12.01;100
17950;BME280;9100;48.700;9.316;2023-02-18T00:39:21;98653.8;;;12.01;100
17950;BME280;9100;48.700;9.316;2023-02-18T00:40:21;98660.5;;;12.02;100
17950;BME280;9100;48.700;9.316;2023-02-18T00:41:22;98658.90000000001;;;12.01;100
17950;BME280;9100;48.700;9.316;2023-02-18T00:41:46;98614.70000000001;;;11.75;100
17950;BME280;9100;48.700;9.316;2023-02-18T00:42:21;98653.8;;;12.01;100
17950;BME280;9100;48.700;9.316;2023-02-18T00:43:21;98655.5;;;12;100
17950;BME280;9100;48.700;9.316;2023-02-18T00:44:21;98654.7;;;12;100
17950;BME280;9100;48.700;9.316;2023-02-18T00:45:21;98650.5;;;11.99;100
17950;BME280;9100;48.700;9.316;2023-02-18T00:46:21;98653.09999999999;;;11.99;100
17950;BME280;9100;48.700;9.316;2023-02-18T00:46:46;98653.3;;;11.97;100
17950;BME280;9100;48.700;9.316;2023-02-18T00:47:21;98655.9;;;11.97;100
17950;BME280;9100;48.700;9.316;2023-02-18T00:48:22;98654.1;;;11.98;100
17950;BME280;9100;48.700;9.316;2023-02-18T00:49:21;98649.8;;;11.98;100
17950;BME280;9100;48.700;9.316;2023-02-18T00:50:21;98644.8;;;11.97;100
17950;BME280;9100;48.700;9.316;2023-02-18T00:51:22;98644.8;;;11.97;100
17950;BME280;9100;48.700;9.316;2023-02-18T00:51:46;98642.4;;;11.95;100
17950;BME280;9100;48.700;9.316;2023-02-18T00:52:21;98637.09999999999;;;11.97;100
17950;BME280;9100;48.700;9.316;2023-02-18T00:53:22;98644.8;;;11.97;100
17950;BME280;9100;48.700;9.316;2023-02-18T00:54:22;98643.8;;;11.98;100
17950;BME280;9100;48.700;9.316;2023-02-18T00:55:22;98637.90000000001;;;11.97;100
17950;BME280;9100;48.700;9.316;2023-02-18T00:56:22;98636.2;;;11.98;100
17950;BME280;9100;48.700;9.316;2023-02-18T00:56:46;98632.8;;;11.97;100
17950;BME280;9100;48.700;9.316;2023-02-18T00:57:21;98632;;;11.97;100
17950;BME280;9100;48.700;9.316;2023-02-18T00:58:22;98632.8;;;11.97;100
17950;BME280;9100;48.700;9.316;2023-02-18T00:59:21;98629.6;;;11.95;100
17950;BME280;9100;48.700;9.316;2023-02-18T01:00:21;98639;;;11.95;100
17950;BME280;9100;48.700;9.316;2023-02-18T01:01:21;98639;;;11.95;100
17950;BME280;9100;48.700;9.316;2023-02-18T01:01:46;98636.5;;;11.95;100
17950;BME280;9100;48.700;9.316;2023-02-18T01:02:21;98645.8;;;11.96;100
17950;BME280;9100;48.700;9.316;2023-02-18T01:03:21;98637.40000000001;;;11.94;100
17950;BME280;9100;48.700;9.316;2023-02-18T01:04:21;98641.6;;;11.95;100
17950;BME280;9100;48.700;9.316;2023-02-18T01:05:22;98650.3;;;11.94;100
17950;BME280;9100;48.700;9.316;2023-02-18T01:06:21;98643.4;;;11.94;100
17950;BME280;9100;48.700;9.316;2023-02-18T01:06:46;98649.3;;;11.95;100
17950;BME280;9100;48.700;9.316;2023-02-18T01:07:21;98641.6;;;11.95;100
17950;BME280;9100;48.700;9.316;2023-02-18T01:08:21;98654.4;;;11.95;100
17950;BME280;9100;48.700;9.316;2023-02-18T01:09:22;98651.70000000001;;;11.96;100
17950;BME280;9100;48.700;9.316;2023-02-18T01:10:21;98644.1;;;11.95;100
17950;BME280;9100;48.700;9.316;2023-02-18T01:11:21;98641;;;11.93;100
17950;BME280;9100;48.700;9.316;2023-02-18T01:11:46;98650.3;;;11.94;100
17950;BME280;9100;48.700;9.316;2023-02-18T01:12:21;98647.7;;;11.94;100
17950;BME280;9100;48.700;9.316;2023-02-18T01:13:21;98639.20000000001;;;11.93;100
17950;BME280;9100;48.700;9.316;2023-02-18T01:14:22;98655.4;;;11.94;100
17950;BME280;9100;48.700;9.316;2023-02-18T01:15:21;98646.90000000001;;;11.93;100
17950;BME280;9100;48.700;9.316;2023-02-18T01:16:21;98649.40000000001;;;11.93;100
17950;BME280;9100;48.700;9.316;2023-02-18T01:16:46;98646.1;;;11.93;100
17950;BME280;9100;48.700;9.316;2023-02-18T01:17:21;98642.6;;;11.94;100
17950;BME280;9100;48.700;9.316;2023-02-18T01:18:23;98640;;;11.94;100
17950;BME280;9100;48.700;9.316;2023-02-18T01:19:21;98647.7;;;11.94;100
17950;BME280;9100;48.700;9.316;2023-02-18T01:20:22;98632.3;;;11.94;100
17950;BME280;9100;48.700;9.316;2023-02-18T01:21:21;98631.5;;;11.93;100
17950;BME280;9100;48.700;9.316;2023-02-18T01:21:46;98631.5;;;11.93;100
17950;BME280;9100;48.700;9.316;2023-02-18T01:22:22;98633.90000000001;;;11.95;100
17950;BME280;9100;48.700;9.316;2023-02-18T01:23:22;98632.3;;;11.94;100
17950;BME280;9100;48.700;9.316;2023-02-18T01:24:21;98630.7;;;11.93;100
17950;BME280;9100;48.700;9.316;2023-02-18T01:25:21;98629.7;;;11.94;100
17950;BME280;9100;48.700;9.316;2023-02-18T01:26:21;98627.3;;;11.92;100
17950;BME280;9100;48.700;9.316;2023-02-18T01:26:47;98628.9;;;11.93;100
17950;BME280;9100;48.700;9.316;2023-02-18T01:27:21;98634.7;;;11.95;100
17950;BME280;9100;48.700;9.316;2023-02-18T01:28:21;98633.90000000001;;;11.95;100
17950;BME280;9100;48.700;9.316;2023-02-18T01:29:22;98637.2;;;11.95;100
17950;BME280;9100;48.700;9.316;2023-02-18T01:30:21;98628.8;;;11.95;100
17950;BME280;9100;48.700;9.316;2023-02-18T01:31:21;98627.20000000001;;;11.94;100
17950;BME280;9100;48.700;9.316;2023-02-18T01:31:46;98628.8;;;11.95;100
17950;BME280;9100;48.700;9.316;2023-02-18T01:32:21;98629.7;;;11.94;100
17950;BME280;9100;48.700;9.316;2023-02-18T01:33:21;98632.3;;;11.94;100
17950;BME280;9100;48.700;9.316;2023-02-18T01:34:22;98628.8;;;11.95;100
17950;BME280;9100;48.700;9.316;2023-02-18T01:35:21;98625.40000000001;;;11.94;100
17950;BME280;9100;48.700;9.316;2023-02-18T01:36:21;98629.7;;;11.94;100
17950;BME280;9100;48.700;9.316;2023-02-18T01:36:46;98633.1;;;11.94;100
17950;BME280;9100;48.700;9.316;2023-02-18T01:37:21;98633.90000000001;;;11.95;100
17950;BME280;9100;48.700;9.316;2023-02-18T01:38:21;98628.8;;;11.95;100
17950;BME280;9100;48.700;9.316;2023-02-18T01:39:21;98620.3;;;11.94;100
17950;BME280;9100;48.700;9.316;2023-02-18T01:40:22;98633.1;;;11.94;100
17950;BME280;9100;48.700;9.316;2023-02-18T01:41:22;98625.59999999999;;;11.93;100
17950;BME280;9100;48.700;9.316;2023-02-18T01:41:46;98621.40000000001;;;11.92;100
17950;BME280;9100;48.700;9.316;2023-02-18T01:42:23;98622.2;;;11.92;100
17950;BME280;9100;48.700;9.316;2023-02-18T01:43:21;98623;;;11.93;100
17950;BME280;9100;48.700;9.316;2023-02-18T01:44:21;98620.5;;;11.93;100
17950;BME280;9100;48.700;9.316;2023-02-18T01:46:22;98613.7;;;11.92;100
17950;BME280;9100;48.700;9.316;2023-02-18T01:46:23;98619.5;;;11.94;100
17950;BME280;9100;48.700;9.316;2023-02-18T01:46:47;98621.40000000001;;;11.92;100
17950;BME280;9100;48.700;9.316;2023-02-18T01:47:21;98621.40000000001;;;11.92;100
17950;BME280;9100;48.700;9.316;2023-02-18T01:48:22;98631.5;;;11.93;100
17950;BME280;9100;48.700;9.316;2023-02-18T01:49:23;98630.7;;;11.93;100
17950;BME280;9100;48.700;9.316;2023-02-18T01:50:21;98628;;;11.94;100
17950;BME280;9100;48.700;9.316;2023-02-18T01:51:21;98630.7;;;11.93;100
17950;BME280;9100;48.700;9.316;2023-02-18T01:51:47;98625.59999999999;;;11.93;100
17950;BME280;9100;48.700;9.316;2023-02-18T01:52:21;98631.5;;;11.93;100
17950;BME280;9100;48.700;9.316;2023-02-18T01:53:24;98628.9;;;11.93;100
17950;BME280;9100;48.700;9.316;2023-02-18T01:54:21;98633.1;;;11.94;100
17950;BME280;9100;48.700;9.316;2023-02-18T01:55:21;98625.59999999999;;;11.93;100
17950;BME280;9100;48.700;9.316;2023-02-18T01:56:23;98626.4;;;11.93;100
17950;BME280;9100;48.700;9.316;2023-02-18T01:56:48;98619.6;;;11.92;100
17950;BME280;9100;48.700;9.316;2023-02-18T01:57:21;98625.59999999999;;;11.93;100
17950;BME280;9100;48.700;9.316;2023-02-18T01:58:21;98625.59999999999;;;11.93;100
17950;BME280;9100;48.700;9.316;2023-02-18T01:59:24;98612.8;;;11.93;100
17950;BME280;9100;48.700;9.316;2023-02-18T02:00:21;98620.5;;;11.93;100
17950;BME280;9100;48.700;9.316;2023-02-18T02:01:21;98614.4;;;11.94;100
17950;BME280;9100;48.700;9.316;2023-02-18T02:01:47;98624.8;;;11.92;100
17950;BME280;9100;48.700;9.316;2023-02-18T02:02:23;98620.6;;;11.91;100
17950;BME280;9100;48.700;9.316;2023-02-18T02:03:21;98619.6;;;11.92;100
17950;BME280;9100;48.700;9.316;2023-02-18T02:04:21;98624;;;11.92;100
17950;BME280;9100;48.700;9.316;2023-02-18T02:05:21;98624;;;11.92;100
17950;BME280;9100;48.700;9.316;2023-02-18T02:06:21;98615.3;;;11.93;100
17950;BME280;9100;48.700;9.316;2023-02-18T02:06:47;98619.6;;;11.92;100
17950;BME280;9100;48.700;9.316;2023-02-18T02:07:22;98614.5;;;11.92;100
17950;BME280;9100;48.700;9.316;2023-02-18T02:08:21;98618.5;;;11.95;100
17950;BME280;9100;48.700;9.316;2023-02-18T02:09:21;98616.7;;;11.95;100
17950;BME280;9100;48.700;9.316;2023-02-18T02:10:22;98620.1;;;11.96;100
17950;BME280;9100;48.700;9.316;2023-02-18T02:11:23;98613.4;;;11.95;100
17950;BME280;9100;48.700;9.316;2023-02-18T02:11:54;98616.9;;;11.94;100
17950;BME280;9100;48.700;9.316;2023-02-18T02:12:24;98611.8;;;11.94;100
17950;BME280;9100;48.700;9.316;2023-02-18T02:13:24;98611.6;;;11.95;100
17950;BME280;9100;48.700;9.316;2023-02-18T02:14:24;98610.79999999999;;;11.95;100
17950;BME280;9100;48.700;9.316;2023-02-18T02:15:27;98616.7;;;11.95;100
17950;BME280;9100;48.700;9.316;2023-02-18T02:16:23;98618.5;;;11.95;100
17950;BME280;9100;48.700;9.316;2023-02-18T02:16:50;98606.7;;;11.94;100
17950;BME280;9100;48.700;9.316;2023-02-18T02:17:25;98613.4;;;11.95;100
17950;BME280;9100;48.700;9.316;2023-02-18T02:18:25;98608.3;;;11.95;100
17950;BME280;9100;48.700;9.316;2023-02-18T02:19:29;98596.40000000001;;;11.94;100
17950;BME280;9100;48.700;9.316;2023-02-18T02:20:30;98597.2;;;11.94;100
17950;BME280;9100;48.700;9.316;2023-02-18T02:21:28;98605.7;;;11.95;100
17950;BME280;9100;48.700;9.316;2023-02-18T02:21:53;98600.8;;;11.93;100
17950;BME280;9100;48.700;9.316;2023-02-18T02:22:27;98603.9;;;11.95;100
17950;BME280;9100;48.700;9.316;2023-02-18T02:23:57;98607.3;;;11.96;100
17950;BME280;9100;48.700;9.316;2023-02-18T02:24:36;98613.4;;;11.95;100
17950;BME280;9100;48.700;9.316;2023-02-18T02:25:26;98599.8;;;11.94;100
17950;BME280;9100;48.700;9.316;2023-02-18T02:26:28;98608.3;;;11.95;100
17950;BME280;9100;48.700;9.316;2023-02-18T02:27:20;98613.59999999999;;;11.93;100
17950;BME280;9100;48.700;9.316;2023-02-18T02:27:22;98607.5;;;11.94;100
17950;BME280;9100;48.700;9.316;2023-02-18T02:28:43;98606.5;;;11.95;100
17950;BME280;9100;48.700;9.316;2023-02-18T02:30:58;98609.1;;;11.95;100
17950;BME280;9100;48.700;9.316;2023-02-18T02:31:26;98613.4;;;11.95;100
17950;BME280;9100;48.700;9.316;2023-02-18T02:31:52;98612.40000000001;;;11.96;100
17950;BME280;9100;48.700;9.316;2023-02-18T02:32:29;98609.90000000001;;;11.96;100
17950;BME280;9100;48.700;9.316;2023-02-18T02:33:34;98604.9;;;11.94;100
17950;BME280;9100;48.700;9.316;2023-02-18T02:34:25;98608.3;;;11.95;100
17950;BME280;9100;48.700;9.316;2023-02-18T02:35:21;98610;;;11.94;100
17950;BME280;9100;48.700;9.316;2023-02-18T02:36:22;98601.59999999999;;;11.94;100
17950;BME280;9100;48.700;9.316;2023-02-18T02:36:46;98603.09999999999;;;11.95;100
17950;BME280;9100;48.700;9.316;2023-02-18T02:37:22;98600.8;;;11.93;100
17950;BME280;9100;48.700;9.316;2023-02-18T02:38:21;98609.2;;;11.94;100
17950;BME280;9100;48.700;9.316;2023-02-18T02:39:23;98610.2;;;11.93;100
17950;BME280;9100;48.700;9.316;2023-02-18T02:40:22;98606.7;;;11.94;100
17950;BME280;9100;48.700;9.316;2023-02-18T02:41:26;98600.9;;;11.92;100
17950;BME280;9100;48.700;9.316;2023-02-18T02:41:48;98602.70000000001;;;11.91;100
17950;BME280;9100;48.700;9.316;2023-02-18T02:42:24;98599.3;;;11.91;100
17950;BME280;9100;48.700;9.316;2023-02-18T02:43:24;98599.90000000001;;;11.93;100
17950;BME280;9100;48.700;9.316;2023-02-18T02:44:22;98601.9;;;11.91;100
17950;BME280;9100;48.700;9.316;2023-02-18T02:45:23;98600.09999999999;;;11.91;100
17950;BME280;9100;48.700;9.316;2023-02-18T02:46:22;98599.5;;;11.89;100
17950;BME280;9100;48.700;9.316;2023-02-18T02:46:46;98607.2;;;11.89;100
17950;BME280;9100;48.700;9.316;2023-02-18T02:47:25;98598.5;;;11.9;100
17950;BME280;9100;48.700;9.316;2023-02-18T02:48:23;98593.5;;;11.89;100
17950;BME280;9100;48.700;9.316;2023-02-18T02:49:25;98527.3;;;11.45;100
17950;BME280;9100;48.700;9.316;2023-02-18T02:50:23;98595.2;;;11.9;100
17950;BME280;9100;48.700;9.316;2023-02-18T02:51:23;98591.2;;;11.87;100
17950;BME280;9100;48.700;9.316;2023-02-18T02:51:47;98590.4;;;11.87;100
17950;BME280;9100;48.700;9.316;2023-02-18T02:52:22;98590.4;;;11.87;100
17950;BME280;9100;48.700;9.316;2023-02-18T02:53:22;98591.2;;;11.87;100
17950;BME280;9100;48.700;9.316;2023-02-18T02:54:22;98585.2;;;11.87;100
17950;BME280;9100;48.700;9.316;2023-02-18T02:55:21;98585.2;;;11.87;100
17950;BME280;9100;48.700;9.316;2023-02-18T02:56:22;98588.09999999999;;;11.84;100
17950;BME280;9100;48.700;9.316;2023-02-18T02:56:46;98584.79999999999;;;11.83;100
17950;BME280;9100;48.700;9.316;2023-02-18T02:57:54;98583;;;11.84;100
17950;BME280;9100;48.700;9.316;2023-02-18T02:58:22;98587.09999999999;;;11.85;100
17950;BME280;9100;48.700;9.316;2023-02-18T02:59:22;98584.79999999999;;;11.83;100
17950;BME280;9100;48.700;9.316;2023-02-18T03:00:22;98579.8;;;11.82;100
17950;BME280;9100;48.700;9.316;2023-02-18T03:01:26;98582.3;;;11.82;100
17950;BME280;9100;48.700;9.316;2023-02-18T03:01:51;98580.7;;;11.81;100
17950;BME280;9100;48.700;9.316;2023-02-18T03:02:23;98580.7;;;11.81;100
17950;BME280;9100;48.700;9.316;2023-02-18T03:03:27;98584.1;;;11.81;100
17950;BME280;9100;48.700;9.316;2023-02-18T03:04:22;98572.40000000001;;;11.79;100
17950;BME280;9100;48.700;9.316;2023-02-18T03:05:23;98570.7;;;11.79;100
17950;BME280;9100;48.700;9.316;2023-02-18T03:06:25;98579.2;;;11.8;100
17950;BME280;9100;48.700;9.316;2023-02-18T03:06:52;98583.5;;;11.79;100
17950;BME280;9100;48.700;9.316;2023-02-18T03:07:26;98586.7;;;11.81;100
17950;BME280;9100;48.700;9.316;2023-02-18T03:08:24;98585.90000000001;;;11.81;100
17950;BME280;9100;48.700;9.316;2023-02-18T03:09:23;98582.3;;;11.82;100
17950;BME280;9100;48.700;9.316;2023-02-18T03:10:24;98581.5;;;11.81;100
17950;BME280;9100;48.700;9.316;2023-02-18T03:11:21;98580.7;;;11.81;100
17950;BME280;9100;48.700;9.316;2023-02-18T03:11:49;98587.5;;;11.82;100
17950;BME280;9100;48.700;9.316;2023-02-18T03:12:24;98583.2;;;11.82;100
17950;BME280;9100;48.700;9.316;2023-02-18T03:13:25;98584.79999999999;;;11.83;100
17950;BME280;9100;48.700;9.316;2023-02-18T03:14:27;98580.6;;;11.82;100
17950;BME280;9100;48.700;9.316;2023-02-18T03:15:23;98580.6;;;11.82;100
17950;BME280;9100;48.700;9.316;2023-02-18T03:16:23;98577.4;;;11.8;100
17950;BME280;9100;48.700;9.316;2023-02-18T03:16:47;98584.90000000001;;;11.82;100
17950;BME280;9100;48.700;9.316;2023-02-18T03:17:22;98582.3;;;11.82;100
17950;BME280;9100;48.700;9.316;2023-02-18T03:18:22;98583.2;;;11.82;100
17950;BME280;9100;48.700;9.316;2023-02-18T03:19:22;98581.5;;;11.81;100
17950;BME280;9100;48.700;9.316;2023-02-18T03:20:22;98589.20000000001;;;11.81;100
17950;BME280;9100;48.700;9.316;2023-02-18T03:21:22;98585.90000000001;;;11.81;100
17950;BME280;9100;48.700;9.316;2023-02-18T03:21:47;98578.2;;;11.81;100
17950;BME280;9100;48.700;9.316;2023-02-18T03:22:22;98585.1;;;11.8;100
17950;BME280;9100;48.700;9.316;2023-02-18T03:23:24;98581.7;;;11.8;100
17950;BME280;9100;48.700;9.316;2023-02-18T03:24:22;98575;;;11.79;100
17950;BME280;9100;48.700;9.316;2023-02-18T03:25:22;98574;;;11.8;100
17950;BME280;9100;48.700;9.316;2023-02-18T03:26:22;98568.1;;;11.79;100
17950;BME280;9100;48.700;9.316;2023-02-18T03:26:47;98563.9;;;11.78;100
17950;BME280;9100;48.700;9.316;2023-02-18T03:27:22;98566.5;;;11.78;100
17950;BME280;9100;48.700;9.316;2023-02-18T03:28:21;98567.5;;;11.77;100
17950;BME280;9100;48.700;9.316;2023-02-18T03:29:21;98568.3;;;11.78;100
17950;BME280;9100;48.700;9.316;2023-02-18T03:30:22;98558.2;;;11.76;100
17950;BME280;9100;48.700;9.316;2023-02-18T03:31:22;98562.5;;;11.76;100
17950;BME280;9100;48.700;9.316;2023-02-18T03:31:46;98567.6;;;11.76;100
17950;BME280;9100;48.700;9.316;2023-02-18T03:32:21;98555.8;;;11.75;100
17950;BME280;9100;48.700;9.316;2023-02-18T03:33:22;98555.8;;;11.75;100
17950;BME280;9100;48.700;9.316;2023-02-18T03:34:22;98559.2;;;11.75;100
17950;BME280;9100;48.700;9.316;2023-02-18T03:35:21;98560.90000000001;;;11.75;100
17950;BME280;9100;48.700;9.316;2023-02-18T03:36:21;98555.9;;;11.73;100
17950;BME280;9100;48.700;9.316;2023-02-18T03:36:46;98554.2;;;11.74;100
17950;BME280;9100;48.700;9.316;2023-02-18T03:37:22;98565.20000000001;;;11.74;100
17950;BME280;9100;48.700;9.316;2023-02-18T03:38:23;98561.7;;;11.75;100
17950;BME280;9100;48.700;9.316;2023-02-18T03:39:22;98557.7;;;11.73;100
17950;BME280;9100;48.700;9.316;2023-02-18T03:40:21;98558.5;;;11.73;100
17950;BME280;9100;48.700;9.316;2023-02-18T03:41:21;98559.3;;;11.74;100
17950;BME280;9100;48.700;9.316;2023-02-18T03:41:46;98545.9;;;11.72;100
17950;BME280;9100;48.700;9.316;2023-02-18T03:42:23;98553.4;;;11.73;100
17950;BME280;9100;48.700;9.316;2023-02-18T03:43:21;98551;;;11.72;100
17950;BME280;9100;48.700;9.316;2023-02-18T03:44:21;98544.9;;;11.73;100
17950;BME280;9100;48.700;9.316;2023-02-18T03:45:21;98534.6;;;11.73;100
17950;BME280;9100;48.700;9.316;2023-02-18T03:46:21;98534.6;;;11.73;100
17950;BME280;9100;48.700;9.316;2023-02-18T03:46:46;98543.1;;;11.73;100
17950;BME280;9100;48.700;9.316;2023-02-18T03:47:21;98535.6;;;11.72;100
17950;BME280;9100;48.700;9.316;2023-02-18T03:48:21;98532.1;;;11.73;100
17950;BME280;9100;48.700;9.316;2023-02-18T03:49:21;98544.9;;;11.73;100
17950;BME280;9100;48.700;9.316;2023-02-18T03:50:22;98547.5;;;11.73;100
17950;BME280;9100;48.700;9.316;2023-02-18T03:51:21;98549.40000000001;;;11.71;100
17950;BME280;9100;48.700;9.316;2023-02-18T03:51:46;98547.6;;;11.71;100
17950;BME280;9100;48.700;9.316;2023-02-18T03:52:21;98545.1;;;11.71;100
17950;BME280;9100;48.700;9.316;2023-02-18T03:53:21;98545.1;;;11.71;100
17950;BME280;9100;48.700;9.316;2023-02-18T03:54:21;98544.2;;;11.71;100
17950;BME280;9100;48.700;9.316;2023-02-18T03:55:21;98546.2;;;11.68;100
17950;BME280;9100;48.700;9.316;2023-02-18T03:56:22;98555.6;;;11.68;100
17950;BME280;9100;48.700;9.316;2023-02-18T03:56:46;98547.1;;;11.67;100
17950;BME280;9100;48.700;9.316;2023-02-18T03:57:22;98551.3;;;11.68;100
17950;BME280;9100;48.700;9.316;2023-02-18T03:58:21;98556.4;;;11.68;100
17950;BME280;9100;48.700;9.316;2023-02-18T03:59:21;98559.6;;;11.71;100
17950;BME280;9100;48.700;9.316;2023-02-18T04:00:22;98560.6;;;11.69;100
17950;BME280;9100;48.700;9.316;2023-02-18T04:01:21;98570.2;;;11.67;100
17950;BME280;9100;48.700;9.316;2023-02-18T04:01:46;98565.9;;;11.68;100
17950;BME280;9100;48.700;9.316;2023-02-18T04:02:21;98559.1;;;11.67;100
17950;BME280;9100;48.700;9.316;2023-02-18T04:03:22;98559.90000000001;;;11.67;100
17950;BME280;9100;48.700;9.316;2023-02-18T04:04:21;98563.5;;;11.66;100
17950;BME280;9100;48.700;9.316;2023-02-18T04:05:21;98568.6;;;11.66;100
17950;BME280;9100;48.700;9.316;2023-02-18T04:06:21;98570.3;;;11.66;100
17950;BME280;9100;48.700;9.316;2023-02-18T04:06:47;98561;;;11.65;100
17950;BME280;9100;48.700;9.316;2023-02-18T04:07:21;98560.29999999999;;;11.64;100
17950;BME280;9100;48.700;9.316;2023-02-18T04:08:21;98564.59999999999;;;11.64;100
17950;BME280;9100;48.700;9.316;2023-02-18T04:09:21;98568.9;;;11.63;100
17950;BME280;9100;48.700;9.316;2023-02-18T04:10:21;98571.5;;;11.63;100
17950;BME280;9100;48.700;9.316;2023-02-18T04:11:22;98567.3;;;11.62;100
17950;BME280;9100;48.700;9.316;2023-02-18T04:11:46;98565.7;;;11.61;100
17950;BME280;9100;48.700;9.316;2023-02-18T04:12:21;98563.9;;;11.62;100
17950;BME280;9100;48.700;9.316;2023-02-18T04:13:21;98558.8;;;11.62;100
17950;BME280;9100;48.700;9.316;2023-02-18T04:14:21;98570;;;11.61;100
17950;BME280;9100;48.700;9.316;2023-02-18T04:15:21;98562.5;;;11.59;100
17950;BME280;9100;48.700;9.316;2023-02-18T04:16:21;98562.5;;;11.59;100
17950;BME280;9100;48.700;9.316;2023-02-18T04:16:46;98568.4;;;11.6;100
17950;BME280;9100;48.700;9.316;2023-02-18T04:17:22;98569.2;;;11.6;100
17950;BME280;9100;48.700;9.316;2023-02-18T04:18:21;98563.09999999999;;;11.61;100
17950;BME280;9100;48.700;9.316;2023-02-18T04:19:21;98565.7;;;11.61;100
17950;BME280;9100;48.700;9.316;2023-02-18T04:20:22;98568.2;;;11.61;100
17950;BME280;9100;48.700;9.316;2023-02-18T04:21:21;98564.9;;;11.53;100
17950;BME280;9100;48.700;9.316;2023-02-18T04:21:46;98571;;;11.6;100
17950;BME280;9100;48.700;9.316;2023-02-18T04:22:21;98564.09999999999;;;11.6;100
17950;BME280;9100;48.700;9.316;2023-02-18T04:23:21;98561.6;;;11.6;100
17950;BME280;9100;48.700;9.316;2023-02-18T04:24:21;98557.4;;;11.59;100
17950;BME280;9100;48.700;9.316;2023-02-18T04:25:21;98560.90000000001;;;11.58;100
17950;BME280;9100;48.700;9.316;2023-02-18T04:26:21;98561.90000000001;;;11.57;100
17950;BME280;9100;48.700;9.316;2023-02-18T04:26:46;98561.90000000001;;;11.57;100
17950;BME280;9100;48.700;9.316;2023-02-18T04:27:22;98566;;;11.58;100
17950;BME280;9100;48.700;9.316;2023-02-18T04:28:21;98559;;;11.6;100
17950;BME280;9100;48.700;9.316;2023-02-18T04:29:21;98553.4;;;11.65;100
17950;BME280;9100;48.700;9.316;2023-02-18T04:30:21;98559.6;;;11.71;100
17950;BME280;9100;48.700;9.316;2023-02-18T04:31:21;98560.6;;;11.78;100
17950;BME280;9100;48.700;9.316;2023-02-18T04:31:46;98561;;;11.81;100
17950;BME280;9100;48.700;9.316;2023-02-18T04:32:21;98554.6;;;11.85;100
17950;BME280;9100;48.700;9.316;2023-02-18T04:33:21;98559.6;;;11.87;100